createdAt,value
2018-01-26T00:00:07.277Z,32.23
2018-01-26T00:02:34.814Z,34.33
2018-01-26T00:05:02.288Z,35.40
2018-01-26T00:07:29.748Z,34.40
2018-01-26T00:09:57.306Z,34.80
2018-01-26T00:12:26.140Z,33.57
2018-01-26T00:14:53.646Z,35.00
2018-01-26T00:17:21.118Z,35.73
2018-01-26T00:19:48.753Z,34.47
2018-01-26T00:22:16.237Z,32.90
2018-01-26T00:24:43.718Z,34.30
2018-01-26T00:27:11.179Z,32.70
2018-01-26T00:29:38.662Z,36.37
2018-01-26T00:32:06.135Z,34.10
2018-01-26T00:34:33.621Z,34.70
2018-01-26T00:37:01.078Z,34.07
2018-01-26T00:39:28.532Z,34.20
2018-01-26T00:41:56.050Z,34.17
2018-01-26T00:44:23.566Z,35.87
2018-01-26T00:46:51.140Z,34.17
2018-01-26T00:49:18.599Z,34.70
2018-01-26T00:51:46.090Z,35.23
2018-01-26T00:54:13.532Z,34.47
2018-01-26T00:56:40.998Z,34.73
2018-01-26T00:59:08.494Z,33.40
2018-01-26T01:01:35.975Z,34.57
2018-01-26T01:04:03.479Z,34.70
2018-01-26T01:06:30.971Z,33.60
2018-01-26T01:08:58.454Z,35.00
2018-01-26T01:11:25.920Z,34.00
2018-01-26T01:13:53.406Z,34.40
2018-01-26T01:16:20.917Z,34.07
2018-01-26T01:18:48.419Z,34.70
2018-01-26T01:21:16.018Z,36.10
2018-01-26T01:23:43.495Z,35.93
2018-01-26T01:26:10.953Z,34.10
2018-01-26T01:28:38.771Z,34.33
2018-01-26T01:31:06.251Z,33.93
2018-01-26T01:33:33.752Z,35.30
2018-01-26T01:36:01.252Z,36.10
2018-01-26T01:38:28.735Z,34.37
2018-01-26T01:40:56.193Z,34.40
2018-01-26T01:43:23.705Z,36.87
2018-01-26T01:45:51.186Z,35.23
2018-01-26T01:48:18.695Z,35.00
2018-01-26T01:50:46.217Z,35.70
2018-01-26T01:53:13.763Z,36.10
2018-01-26T01:55:41.247Z,34.67
2018-01-26T01:58:08.753Z,33.50
2018-01-26T02:00:36.262Z,34.97
2018-01-26T02:03:03.859Z,33.88
2018-01-26T02:05:31.356Z,33.47
2018-01-26T02:07:58.864Z,33.30
2018-01-26T02:10:26.400Z,35.03
2018-01-26T02:12:53.850Z,36.20
2018-01-26T02:15:21.333Z,34.07
2018-01-26T02:17:48.809Z,34.78
2018-01-26T02:20:16.302Z,35.20
2018-01-26T02:22:43.775Z,36.20
2018-01-26T02:25:11.282Z,36.13
2018-01-26T02:27:38.745Z,35.80
2018-01-26T02:30:06.233Z,37.00
2018-01-26T02:32:34.240Z,38.00
2018-01-26T02:35:01.739Z,34.97
2018-01-26T02:37:29.193Z,36.93
2018-01-26T02:39:56.663Z,34.10
2018-01-26T02:42:24.366Z,35.27
2018-01-26T02:44:51.832Z,34.80
2018-01-26T02:47:19.334Z,35.97
2018-01-26T02:49:46.798Z,36.53
2018-01-26T02:52:14.418Z,36.40
2018-01-26T02:54:42.239Z,36.85
2018-01-26T02:57:09.765Z,37.22
2018-01-26T02:59:37.249Z,36.93
2018-01-26T03:02:04.858Z,35.00
2018-01-26T03:04:32.464Z,38.23
2018-01-26T03:06:59.975Z,36.53
2018-01-26T03:09:27.494Z,37.17
2018-01-26T03:11:54.943Z,36.43
2018-01-26T03:14:22.430Z,38.53
2018-01-26T03:16:49.935Z,38.50
2018-01-26T03:19:17.453Z,37.50
2018-01-26T03:21:44.926Z,38.93
2018-01-26T03:24:12.469Z,40.30
2018-01-26T03:26:39.941Z,42.10
2018-01-26T03:29:07.482Z,40.20
2018-01-26T03:31:35.015Z,39.10
2018-01-26T03:34:02.979Z,40.33
2018-01-26T03:36:30.590Z,39.07
2018-01-26T03:38:58.068Z,40.10
2018-01-26T03:41:25.598Z,39.90
2018-01-26T03:43:53.142Z,40.57
2018-01-26T03:46:20.694Z,40.90
2018-01-26T03:48:48.191Z,41.73
2018-01-26T03:51:16.499Z,41.30
2018-01-26T03:53:43.957Z,41.27
2018-01-26T03:56:11.464Z,40.63
2018-01-26T11:56:14.506Z,44.80
2018-01-26T11:58:41.966Z,45.10
2018-01-26T12:01:09.418Z,46.07
2018-01-26T12:03:36.941Z,47.07
2018-01-26T12:06:04.467Z,48.57
2018-01-26T12:08:32.050Z,46.70
2018-01-26T12:10:59.588Z,44.47
2018-01-26T12:13:27.453Z,42.60
2018-01-26T12:15:56.749Z,44.43
2018-01-26T12:18:25.214Z,45.50
2018-01-26T12:20:52.658Z,44.00
2018-01-26T12:23:20.379Z,46.10
2018-01-26T12:25:48.402Z,46.17
2018-01-26T12:28:17.138Z,45.83
2018-01-26T12:30:45.389Z,43.70
2018-01-26T12:33:13.110Z,45.27
2018-01-26T12:35:41.583Z,45.83
2018-01-26T12:38:09.058Z,42.87
2018-01-26T12:40:38.986Z,43.47
2018-01-26T12:43:07.694Z,46.63
2018-01-26T12:45:43.944Z,42.40
2018-01-26T12:48:13.302Z,38.97
2018-01-26T12:50:41.174Z,38.90
2018-01-26T12:53:10.273Z,42.30
2018-01-26T12:58:28.331Z,41.60
2018-01-26T13:00:59.320Z,39.13
2018-01-26T13:03:27.394Z,41.40
2018-01-26T13:05:55.010Z,44.87
2018-01-26T13:08:22.506Z,44.60
2018-01-26T13:10:51.055Z,43.63
2018-01-26T13:13:18.790Z,44.30
2018-01-26T13:15:46.305Z,44.77
2018-01-26T13:18:14.001Z,44.40
2018-01-26T13:20:42.197Z,46.03
2018-01-26T13:23:09.820Z,44.87
2018-01-26T13:25:37.508Z,45.33
2018-01-26T13:28:04.995Z,45.00
2018-01-26T13:30:32.618Z,46.23
2018-01-26T13:33:00.637Z,46.00
2018-01-26T13:35:29.070Z,49.80
2018-01-26T13:37:57.031Z,45.50
2018-01-26T13:40:24.707Z,48.97
2018-01-26T13:42:53.775Z,46.20
2018-01-26T13:50:47.162Z,44.20
2018-01-26T13:53:17.243Z,45.70
2018-01-26T13:55:45.204Z,45.13
2018-01-26T13:58:17.727Z,43.10
2018-01-26T14:00:50.344Z,42.03
2018-01-26T14:06:19.446Z,42.97
2018-01-26T14:21:33.066Z,39.63
2018-01-26T14:29:49.265Z,39.87
2018-01-26T14:32:17.530Z,38.90
2018-01-26T14:35:03.360Z,41.70
2018-01-26T14:37:46.798Z,37.33
2018-01-26T14:40:18.175Z,41.10
2018-01-26T14:46:01.902Z,38.17
2018-01-26T14:48:43.671Z,39.47
2018-01-26T14:51:13.740Z,40.53
2018-01-26T14:56:38.563Z,40.27
2018-01-26T14:59:06.330Z,41.60
2018-01-26T15:04:39.547Z,41.63
2018-01-26T15:07:07.328Z,43.00
2018-01-26T15:09:34.920Z,44.13
2018-01-26T15:12:02.461Z,42.17
2018-01-26T15:14:30.148Z,43.37
2018-01-26T15:16:57.711Z,41.90
2018-01-26T15:19:25.185Z,43.00
2018-01-26T15:21:52.702Z,43.17
2018-01-26T15:24:20.253Z,41.87
2018-01-26T15:26:47.749Z,41.97
2018-01-26T15:29:15.254Z,42.00
2018-01-26T15:31:42.768Z,41.63
2018-01-26T15:34:10.394Z,46.07
2018-01-26T15:36:37.940Z,42.83
2018-01-26T15:39:07.594Z,45.10
2018-01-26T15:41:35.310Z,44.07
2018-01-26T15:44:12.096Z,46.53
2018-01-26T15:46:40.383Z,45.50
2018-01-26T15:49:09.051Z,44.13
2018-01-26T15:51:49.271Z,47.50
2018-01-26T15:57:02.899Z,47.17
2018-01-26T16:09:10.525Z,48.60
2018-01-26T16:11:37.990Z,47.90
2018-01-26T16:14:05.641Z,50.07
2018-01-26T16:16:33.405Z,52.43
2018-01-26T16:19:01.302Z,48.27
2018-01-26T16:21:29.183Z,49.97
2018-01-26T16:23:56.676Z,48.70
2018-01-26T16:26:24.255Z,48.77
2018-01-26T16:28:55.100Z,49.70
2018-01-26T16:31:22.745Z,49.07
2018-01-26T16:33:50.322Z,48.93
2018-01-26T16:36:18.033Z,50.40
2018-01-26T16:38:45.523Z,49.40
2018-01-26T16:41:13.053Z,57.20
2018-01-26T16:43:40.556Z,52.07
2018-01-26T16:46:08.075Z,52.10
2018-01-26T16:48:35.626Z,48.53
2018-01-26T16:51:03.239Z,49.37
2018-01-26T16:53:31.365Z,50.70
2018-01-26T16:55:58.901Z,48.93
2018-01-26T16:58:26.567Z,52.60
2018-01-26T17:00:54.600Z,51.70
2018-01-26T17:03:22.956Z,49.27
2018-01-26T17:05:50.560Z,50.13
2018-01-26T17:08:18.082Z,50.43
2018-01-26T17:10:46.121Z,52.77
2018-01-26T17:13:13.830Z,51.90
2018-01-26T17:15:41.319Z,53.90
2018-01-26T17:18:08.811Z,54.10
2018-01-26T17:20:38.273Z,55.00
2018-01-26T17:23:05.929Z,55.47
2018-01-26T17:28:08.272Z,54.87
2018-01-26T17:30:40.294Z,56.10
2018-01-26T17:33:07.830Z,55.03
2018-01-26T17:35:35.360Z,57.30
2018-01-26T17:38:02.902Z,54.10
2018-01-26T17:40:30.446Z,53.93
2018-01-26T17:42:57.975Z,52.50
2018-01-26T17:45:26.270Z,54.00
2018-01-26T17:47:53.841Z,53.47
2018-01-26T17:50:21.521Z,53.63
2018-01-26T17:52:49.201Z,50.03
2018-01-26T17:55:17.514Z,52.23
2018-01-26T17:57:45.080Z,48.70
2018-01-26T18:00:12.650Z,47.30
2018-01-26T18:02:40.518Z,50.77
2018-01-26T18:05:08.207Z,49.83
2018-01-26T18:07:35.800Z,48.10
2018-01-26T18:10:03.541Z,47.33
2018-01-26T18:12:31.971Z,47.00
2018-01-26T18:14:59.554Z,46.73
2018-01-26T18:17:27.172Z,46.10
2018-01-26T18:31:33.899Z,48.87
2018-01-26T18:34:01.405Z,49.60
2018-01-26T18:36:29.073Z,47.30
2018-01-26T18:38:56.662Z,47.00
2018-01-26T18:41:24.208Z,48.90
2018-01-26T18:43:51.881Z,46.53
2018-01-26T18:46:21.444Z,48.23
2018-01-26T18:48:49.813Z,48.60
2018-01-26T18:51:18.934Z,48.07
2018-01-26T18:53:46.536Z,50.37
2018-01-26T18:56:14.088Z,52.17
2018-01-26T18:58:42.482Z,50.53
2018-01-26T19:01:10.051Z,48.97
2018-01-26T19:03:37.652Z,51.37
2018-01-26T19:06:05.352Z,48.73
2018-01-26T19:08:36.532Z,52.20
2018-01-26T19:11:04.046Z,51.57
2018-01-26T19:13:31.665Z,47.80
2018-01-26T19:15:59.255Z,53.73
2018-01-26T19:18:27.003Z,50.10
2018-01-26T19:20:54.572Z,52.50
2018-01-26T19:23:23.372Z,52.07
2018-01-26T19:25:52.866Z,53.10
2018-01-26T19:28:20.590Z,51.93
2018-01-26T19:30:51.063Z,55.30
2018-01-26T19:33:18.941Z,56.87
2018-01-26T19:35:46.569Z,55.60
2018-01-26T19:38:14.532Z,53.40
2018-01-26T19:40:42.086Z,54.33
2018-01-26T19:43:10.559Z,49.47
2018-01-26T19:45:41.301Z,51.70
2018-01-26T19:48:09.161Z,54.70
2018-01-26T19:50:37.024Z,55.00
2018-01-26T19:53:08.458Z,54.67
2018-01-26T19:55:37.686Z,52.23
2018-01-26T19:58:05.652Z,52.43
2018-01-26T20:00:33.544Z,49.77
2018-01-26T20:20:19.390Z,53.83
2018-01-26T20:22:49.798Z,59.80
2018-01-26T20:25:18.057Z,58.20
2018-01-26T20:46:50.926Z,68.80
2018-01-26T20:49:20.654Z,68.90
2018-01-26T20:51:51.395Z,72.37
2018-01-26T20:54:20.884Z,74.60
2018-01-26T20:56:50.153Z,75.67
2018-01-26T21:02:29.316Z,73.57
2018-01-26T21:04:59.694Z,71.70
2018-01-26T21:07:29.398Z,74.77
2018-01-26T21:09:57.391Z,77.07
2018-01-26T21:12:25.230Z,76.20
2018-01-26T21:14:56.688Z,73.10
2018-01-26T21:17:24.347Z,75.20
2018-01-26T21:19:51.864Z,78.47
2018-01-26T21:22:19.349Z,76.40
2018-01-26T21:24:47.101Z,73.80
2018-01-26T21:27:16.511Z,74.30
2018-01-26T21:29:44.121Z,76.63
2018-01-26T21:32:11.638Z,73.40
2018-01-26T21:34:42.599Z,72.50
2018-01-26T21:45:04.719Z,78.37
2018-01-26T22:04:57.804Z,70.23
2018-01-26T22:07:31.066Z,72.57
2018-01-26T22:26:07.680Z,64.87
2018-01-26T22:28:40.067Z,69.10
2018-01-26T22:31:07.807Z,73.50
2018-01-26T22:33:35.892Z,68.90
2018-01-26T22:36:05.719Z,66.03
2018-01-26T22:38:34.079Z,66.80
2018-01-26T22:41:02.547Z,70.00
2018-01-26T22:43:35.988Z,66.97
2018-01-26T22:46:12.505Z,68.60
2018-01-26T22:48:42.329Z,69.53
2018-01-26T22:51:10.643Z,69.90
2018-01-26T22:53:41.374Z,70.20
2018-01-26T22:56:09.142Z,71.07
2018-01-26T22:58:42.848Z,72.80
2018-01-26T23:01:11.315Z,68.30
2018-01-26T23:03:38.905Z,67.37
2018-01-26T23:06:06.756Z,70.57
2018-01-26T23:11:09.070Z,66.60
2018-01-26T23:13:36.766Z,70.67
2018-01-26T23:16:04.381Z,67.60
2018-01-26T23:18:32.077Z,65.03
2018-01-26T23:20:59.689Z,63.27
2018-01-26T23:23:27.347Z,63.30
2018-01-26T23:25:55.056Z,67.00
2018-01-26T23:28:23.240Z,64.23
2018-01-26T23:30:50.763Z,63.40
2018-01-26T23:33:21.017Z,67.70
2018-01-26T23:35:48.815Z,64.33
2018-01-26T23:38:16.412Z,67.33
2018-01-26T23:40:43.968Z,64.47
2018-01-26T23:43:11.452Z,66.23
2018-01-26T23:45:39.003Z,65.13
2018-01-26T23:48:06.493Z,68.13
2018-01-26T23:50:34.037Z,64.00
2018-01-26T23:53:01.506Z,64.03
2018-01-26T23:55:29.001Z,66.00
2018-01-26T23:57:56.470Z,66.40
